Time;durP1;ratioP1;P1;durP2;ratioP2;P2;SDS_P1;SDS_P2;PMS_P1;PMS_P2;Temp;Humidity;BMP_temperature;BMP_pressure;BME280_temperature;BME280_humidity;BME280_pressure;Samples;Min_cycle;Max_cycle;Signal;HPM_P1;HPM_P2
2020/12/14 00:00:02;;;;;;;;;;;;;;;;;;5055357;23;19983;-70
2020/12/14 00:02:28;;;;;;;;;;;;;;;;;;5062361;28;19909;-70
2020/12/14 00:04:54;;;;;;;;;;;;;;;;;;5062843;28;19952;-70
2020/12/14 00:07:20;;;;;;;;;;;;;;;;;;5071303;28;20330;-70
2020/12/14 00:09:46;;;;;;;;;;;;;;;;;;5059176;28;19915;-70
2020/12/14 00:12:12;;;;;;;;;;;;;;;;;;5069651;28;20019;-70
2020/12/14 00:14:38;;;;;;;;;;;;;;;;;;5069781;28;19908;-71
2020/12/14 00:17:04;;;;;;;;;;;;;;;;;;5071251;28;19909;-70
2020/12/14 00:19:30;;;;;;;;;;;;;;;;;;5070893;28;19959;-70
2020/12/14 00:21:56;;;;;;;;;;;;;;;;;;5071141;28;19974;-69
2020/12/14 00:24:22;;;;;;;;;;;;;;;;;;5069555;28;19996;-70
2020/12/14 00:26:47;;;;;;;;;;;;;;;;;;5071071;28;19915;-70
2020/12/14 00:29:13;;;;;;;;;;;;;;;;;;5069618;28;19909;-70
2020/12/14 00:31:39;;;;;;;;;;;;;;;;;;5071187;28;20296;-70
2020/12/14 00:34:05;;;;;;;;;;;;;;;;;;5070923;28;19948;-70
2020/12/14 00:36:31;;;;;;;;;;;;;;;;;;5074178;28;19915;-70
2020/12/14 00:38:57;;;;;;;;;;;;;;;;;;5069440;28;19932;-70
2020/12/14 00:41:23;;;;;;;;;;;;;;;;;;5066718;28;19935;-70
2020/12/14 00:43:49;;;;;;;;;;;;;;;;;;5088685;28;19923;-71
2020/12/14 00:46:15;;;;;;;;;;;;;;;;;;5090429;28;19950;-70
2020/12/14 00:48:40;;;;;;;;;;;;;;;;;;5082107;28;20276;-70
2020/12/14 00:51:06;;;;;;;;;;;;;;;;;;5073846;28;19912;-70
2020/12/14 00:53:32;;;;;;;;;;;;;;;;;;5073165;28;19904;-70
2020/12/14 00:55:58;;;;;;;;;;;;;;;;;;5075434;28;19908;-70
2020/12/14 00:58:24;;;;;;;;;;;;;;;;;;5074423;28;20264;-70
2020/12/14 01:00:50;;;;;;;;;;;;;;;;;;5074825;28;19963;-70
2020/12/14 01:03:16;;;;;;;;;;;;;;;;;;5073175;28;19999;-69
2020/12/14 01:05:42;;;;;;;;;;;;;;;;;;5074635;28;20328;-70
2020/12/14 01:08:08;;;;;;;;;;;;;;;;;;5066497;28;19908;-70
2020/12/14 01:10:34;;;;;;;;;;;;;;;;;;5072938;28;19909;-70
2020/12/14 01:12:59;;;;;;;;;;;;;;;;;;5073109;28;20396;-70
2020/12/14 01:15:25;;;;;;;;;;;;;;;;;;5074786;28;19948;-70
2020/12/14 01:17:51;;;;;;;;;;;;;;;;;;5074519;28;20020;-70
2020/12/14 01:20:17;;;;;;;;;;;;;;;;;;5074382;28;19938;-70
2020/12/14 01:22:43;;;;;;;;;;;;;;;;;;5074270;28;19908;-70
2020/12/14 01:25:09;;;;;;;;;;;;;;;;;;5073799;28;19916;-70
2020/12/14 01:27:35;;;;;;;;;;;;;;;;;;5072661;28;19916;-69
2020/12/14 01:30:01;;;;;;;;;;;;;;;;;;5074357;28;19915;-70
2020/12/14 01:32:27;;;;;;;;;;;;;;;;;;5072909;28;19967;-70
2020/12/14 01:34:52;;;;;;;;;;;;;;;;;;5073969;28;20007;-70
2020/12/14 01:37:18;;;;;;;;;;;;;;;;;;5074076;28;19930;-70
2020/12/14 01:39:44;;;;;;;;;;;;;;;;;;5061827;28;19915;-70
2020/12/14 01:42:10;;;;;;;;;;;;;;;;;;5071035;28;19913;-70
2020/12/14 01:44:36;;;;;;;;;;;;;;;;;;5073811;28;20301;-70
2020/12/14 01:47:05;;;;;;;;;;;;;;;;;;5072363;28;19905;-70
2020/12/14 01:49:31;;;;;;;;;;;;;;;;;;5072393;28;19958;-70
2020/12/14 01:51:57;;;;;;;;;;;;;;;;;;5073763;28;19909;-70
2020/12/14 01:54:23;;;;;;;;;;;;;;;;;;5073537;28;19909;-70
2020/12/14 01:56:49;;;;;;;;;;;;;;;;;;5073821;28;20391;-69
2020/12/14 01:59:15;;;;;;;;;;;;;;;;;;5073375;28;19944;-70
2020/12/14 02:01:41;;;;;;;;;;;;;;;;;;5072122;28;20006;-70
2020/12/14 02:04:07;;;;;;;;;;;;;;;;;;5072306;28;20425;-70
2020/12/14 02:06:33;;;;;;;;;;;;;;;;;;5074561;28;19908;-70
2020/12/14 02:08:58;;;;;;;;;;;;;;;;;;5066350;28;20288;-70
2020/12/14 02:11:24;;;;;;;;;;;;;;;;;;5065280;28;20287;-70
2020/12/14 02:13:50;;;;;;;;;;;;;;;;;;5073253;28;19959;-70
2020/12/14 02:16:16;;;;;;;;;;;;;;;;;;5072066;28;19909;-70
2020/12/14 02:18:42;;;;;;;;;;;;;;;;;;5071627;28;19908;-70
2020/12/14 02:21:08;;;;;;;;;;;;;;;;;;5071846;28;20438;-70
2020/12/14 02:23:34;;;;;;;;;;;;;;;;;;5072681;28;19956;-70
2020/12/14 02:26:00;;;;;;;;;;;;;;;;;;5073239;28;19944;-70
2020/12/14 02:28:26;;;;;;;;;;;;;;;;;;5072938;28;20320;-70
2020/12/14 02:30:51;;;;;;;;;;;;;;;;;;5073422;28;19908;-70
2020/12/14 02:33:17;;;;;;;;;;;;;;;;;;5073040;28;19908;-70
2020/12/14 02:35:45;;;;;;;;;;;;;;;;;;5071737;28;19947;-70
2020/12/14 02:38:11;;;;;;;;;;;;;;;;;;5067547;28;20021;-70
2020/12/14 02:40:37;;;;;;;;;;;;;;;;;;5062685;28;19956;-70
2020/12/14 02:43:03;;;;;;;;;;;;;;;;;;5072914;28;20003;-70
2020/12/14 02:45:29;;;;;;;;;;;;;;;;;;5072471;28;19908;-70
2020/12/14 02:47:55;;;;;;;;;;;;;;;;;;5071303;28;19909;-70
2020/12/14 02:50:21;;;;;;;;;;;;;;;;;;5072632;28;19959;-70
2020/12/14 02:52:46;;;;;;;;;;;;;;;;;;5071332;28;19912;-70
2020/12/14 02:55:12;;;;;;;;;;;;;;;;;;5072233;28;19943;-70
2020/12/14 02:57:38;;;;;;;;;;;;;;;;;;5070661;28;19951;-70
2020/12/14 03:00:04;;;;;;;;;;;;;;;;;;5072284;28;20003;-70
2020/12/14 03:02:30;;;;;;;;;;;;;;;;;;5071244;28;20011;-70
2020/12/14 03:04:56;;;;;;;;;;;;;;;;;;5072483;28;20391;-70
2020/12/14 03:07:22;;;;;;;;;;;;;;;;;;5072272;28;19994;-70
2020/12/14 03:09:48;;;;;;;;;;;;;;;;;;5060255;28;20000;-70
2020/12/14 03:12:14;;;;;;;;;;;;;;;;;;5062777;28;19909;-70
2020/12/14 03:14:40;;;;;;;;;;;;;;;;;;5062733;28;19955;-70
2020/12/14 03:17:06;;;;;;;;;;;;;;;;;;5072130;28;19934;-69
2020/12/14 03:19:32;;;;;;;;;;;;;;;;;;5071979;28;19915;-69
2020/12/14 03:21:58;;;;;;;;;;;;;;;;;;5071825;28;19955;-70
2020/12/14 03:24:24;;;;;;;;;;;;;;;;;;5071677;28;19916;-70
2020/12/14 03:26:50;;;;;;;;;;;;;;;;;;5072045;28;19914;-70
2020/12/14 03:29:16;;;;;;;;;;;;;;;;;;5070338;28;19909;-70
2020/12/14 03:31:42;;;;;;;;;;;;;;;;;;5071971;28;19912;-70
2020/12/14 03:34:08;;;;;;;;;;;;;;;;;;5070434;28;20384;-70
2020/12/14 03:36:33;;;;;;;;;;;;;;;;;;5071803;28;19995;-70
2020/12/14 03:38:59;;;;;;;;;;;;;;;;;;5064549;28;20001;-69
2020/12/14 03:41:25;;;;;;;;;;;;;;;;;;5052029;28;20027;-70
2020/12/14 03:43:51;;;;;;;;;;;;;;;;;;5051831;28;19909;-70
2020/12/14 03:46:17;;;;;;;;;;;;;;;;;;5051722;28;19948;-70
2020/12/14 03:48:43;;;;;;;;;;;;;;;;;;5050294;28;20280;-70
2020/12/14 03:51:09;;;;;;;;;;;;;;;;;;5043654;28;19909;-70
2020/12/14 03:53:35;;;;;;;;;;;;;;;;;;5061609;28;19908;-70
2020/12/14 03:56:01;;;;;;;;;;;;;;;;;;5071594;28;20506;-70
2020/12/14 03:58:27;;;;;;;;;;;;;;;;;;5071410;28;19912;-70
2020/12/14 04:00:52;;;;;;;;;;;;;;;;;;5069978;28;19956;-70
2020/12/14 04:03:18;;;;;;;;;;;;;;;;;;5063184;28;20011;-70
2020/12/14 04:05:44;;;;;;;;;;;;;;;;;;5062671;28;19999;-70
2020/12/14 04:08:10;;;;;;;;;;;;;;;;;;5070033;28;19909;-70
2020/12/14 04:10:36;;;;;;;;;;;;;;;;;;5070435;28;20303;-70
2020/12/14 04:13:02;;;;;;;;;;;;;;;;;;5071510;28;19913;-70
2020/12/14 04:15:28;;;;;;;;;;;;;;;;;;5069984;28;20441;-70
2020/12/14 04:17:54;;;;;;;;;;;;;;;;;;5071459;28;19975;-70
2020/12/14 04:20:20;;;;;;;;;;;;;;;;;;5070149;28;19971;-70
2020/12/14 04:22:46;;;;;;;;;;;;;;;;;;5057896;28;20011;-70
2020/12/14 04:25:12;;;;;;;;;;;;;;;;;;5069665;28;20260;-70
2020/12/14 04:27:38;;;;;;;;;;;;;;;;;;5071498;28;19915;-70
2020/12/14 04:30:03;;;;;;;;;;;;;;;;;;5071654;28;19912;-70
2020/12/14 04:32:29;;;;;;;;;;;;;;;;;;5072395;28;19908;-70
2020/12/14 04:34:55;;;;;;;;;;;;;;;;;;5085567;28;19909;-71
2020/12/14 04:37:21;;;;;;;;;;;;;;;;;;5080542;28;19908;-70
2020/12/14 04:39:47;;;;;;;;;;;;;;;;;;5076383;28;19912;-70
2020/12/14 04:42:13;;;;;;;;;;;;;;;;;;5071401;28;19916;-70
2020/12/14 04:44:39;;;;;;;;;;;;;;;;;;5071060;28;19912;-70
2020/12/14 04:47:05;;;;;;;;;;;;;;;;;;5069876;28;19951;-71
2020/12/14 04:49:33;;;;;;;;;;;;;;;;;;5070753;28;19943;-70
2020/12/14 04:51:58;;;;;;;;;;;;;;;;;;5063417;28;19912;-70
2020/12/14 04:54:24;;;;;;;;;;;;;;;;;;5062956;28;19915;-70
2020/12/14 04:56:50;;;;;;;;;;;;;;;;;;5069674;28;20394;-70
2020/12/14 04:59:16;;;;;;;;;;;;;;;;;;5069491;28;19918;-70
2020/12/14 05:01:42;;;;;;;;;;;;;;;;;;5068776;28;19923;-70
2020/12/14 05:04:08;;;;;;;;;;;;;;;;;;5070868;28;19979;-70
2020/12/14 05:06:34;;;;;;;;;;;;;;;;;;5064208;28;20305;-70
2020/12/14 05:09:00;;;;;;;;;;;;;;;;;;5061918;28;20003;-70
2020/12/14 05:11:26;;;;;;;;;;;;;;;;;;5070707;28;19909;-70
2020/12/14 05:13:51;;;;;;;;;;;;;;;;;;5069355;28;20360;-70
2020/12/14 05:16:17;;;;;;;;;;;;;;;;;;5070754;28;19912;-70
2020/12/14 05:18:43;;;;;;;;;;;;;;;;;;5069356;28;19931;-70
2020/12/14 05:21:09;;;;;;;;;;;;;;;;;;5064580;28;19919;-70
2020/12/14 05:23:35;;;;;;;;;;;;;;;;;;5064474;28;19939;-70
2020/12/14 05:26:01;;;;;;;;;;;;;;;;;;5074217;28;20005;-70
2020/12/14 05:28:27;;;;;;;;;;;;;;;;;;5074128;28;19962;-70
2020/12/14 05:30:53;;;;;;;;;;;;;;;;;;5073118;28;20007;-69
2020/12/14 05:33:19;;;;;;;;;;;;;;;;;;5074136;28;19999;-69
2020/12/14 05:35:44;;;;;;;;;;;;;;;;;;5074031;28;19923;-70
2020/12/14 05:38:10;;;;;;;;;;;;;;;;;;5073483;28;19912;-70
2020/12/14 05:40:36;;;;;;;;;;;;;;;;;;5073606;28;19964;-69
2020/12/14 05:43:02;;;;;;;;;;;;;;;;;;5072627;28;19912;-70
2020/12/14 05:45:28;;;;;;;;;;;;;;;;;;5072478;28;20435;-70
2020/12/14 05:47:57;;;;;;;;;;;;;;;;;;5074472;28;19944;-70
2020/12/14 05:50:23;;;;;;;;;;;;;;;;;;5071187;28;19998;-69
2020/12/14 05:52:49;;;;;;;;;;;;;;;;;;5061761;28;19956;-70
2020/12/14 05:55:15;;;;;;;;;;;;;;;;;;5072384;28;19913;-70
2020/12/14 05:57:41;;;;;;;;;;;;;;;;;;5073511;28;20080;-70
2020/12/14 06:00:07;;;;;;;;;;;;;;;;;;5073023;28;20371;-69
2020/12/14 06:02:33;;;;;;;;;;;;;;;;;;5073487;28;19943;-71
2020/12/14 06:05:02;;;;;;;;;;;;;;;;;;5072782;28;19908;-70
2020/12/14 06:07:28;;;;;;;;;;;;;;;;;;5073114;28;20382;-69
2020/12/14 06:09:54;;;;;;;;;;;;;;;;;;5072113;28;19999;-70
2020/12/14 06:12:20;;;;;;;;;;;;;;;;;;5063785;28;19948;-70
2020/12/14 06:14:46;;;;;;;;;;;;;;;;;;5052994;28;20007;-69
2020/12/14 06:17:12;;;;;;;;;;;;;;;;;;5052429;28;20656;-69
2020/12/14 06:19:38;;;;;;;;;;;;;;;;;;5052513;28;19908;-70
2020/12/14 06:22:04;;;;;;;;;;;;;;;;;;5054219;28;19913;-70
2020/12/14 06:24:30;;;;;;;;;;;;;;;;;;5065074;28;19955;-70
2020/12/14 06:26:56;;;;;;;;;;;;;;;;;;5073803;28;19977;-69
2020/12/14 06:29:22;;;;;;;;;;;;;;;;;;5072284;28;19919;-70
2020/12/14 06:31:47;;;;;;;;;;;;;;;;;;5072340;28;19909;-70
2020/12/14 06:34:13;;;;;;;;;;;;;;;;;;5069066;28;20395;-70
2020/12/14 06:36:39;;;;;;;;;;;;;;;;;;5051836;28;19917;-70
2020/12/14 06:39:05;;;;;;;;;;;;;;;;;;5051892;28;19944;-70
2020/12/14 06:41:31;;;;;;;;;;;;;;;;;;5049006;28;19972;-70
2020/12/14 06:43:57;;;;;;;;;;;;;;;;;;5043173;28;19987;-70
2020/12/14 06:46:23;;;;;;;;;;;;;;;;;;5050605;28;19999;-70
2020/12/14 06:48:49;;;;;;;;;;;;;;;;;;5034412;28;19909;-70
2020/12/14 06:51:15;;;;;;;;;;;;;;;;;;5057790;28;19913;-69
2020/12/14 06:53:41;;;;;;;;;;;;;;;;;;5055375;28;20505;-70
2020/12/14 06:56:07;;;;;;;;;;;;;;;;;;5047588;28;20341;-70
2020/12/14 06:58:33;;;;;;;;;;;;;;;;;;5046422;28;19956;-70
2020/12/14 07:00:59;;;;;;;;;;;;;;;;;;5048746;28;19960;-68
2020/12/14 07:03:25;;;;;;;;;;;;;;;;;;5044434;28;19909;-67
2020/12/14 07:05:51;;;;;;;;;;;;;;;;;;5044305;28;20634;-69
2020/12/14 07:08:17;;;;;;;;;;;;;;;;;;5046538;28;20368;-68
2020/12/14 07:10:42;;;;;;;;;;;;;;;;;;5040628;28;19948;-69
2020/12/14 07:13:09;;;;;;;;;;;;;;;;;;5048113;28;20013;-68
2020/12/14 07:15:35;;;;;;;;;;;;;;;;;;5038876;28;19915;-67
2020/12/14 07:18:01;;;;;;;;;;;;;;;;;;5033868;28;19913;-68
2020/12/14 07:20:27;;;;;;;;;;;;;;;;;;5036127;28;19913;-68
2020/12/14 07:22:53;;;;;;;;;;;;;;;;;;5054811;28;19909;-67
2020/12/14 07:25:19;;;;;;;;;;;;;;;;;;5052443;28;20277;-70
2020/12/14 07:27:45;;;;;;;;;;;;;;;;;;5050974;28;19959;-70
2020/12/14 07:30:11;;;;;;;;;;;;;;;;;;5052183;28;19913;-70
2020/12/14 07:32:37;;;;;;;;;;;;;;;;;;5051797;28;19908;-70
2020/12/14 07:35:06;;;;;;;;;;;;;;;;;;5050469;28;19955;-69
2020/12/14 07:37:31;;;;;;;;;;;;;;;;;;5050214;28;19916;-70
2020/12/14 07:39:57;;;;;;;;;;;;;;;;;;5050561;28;19909;-69
2020/12/14 07:42:23;;;;;;;;;;;;;;;;;;5051562;28;19909;-70
2020/12/14 07:44:49;;;;;;;;;;;;;;;;;;5051600;28;20011;-70
2020/12/14 07:47:15;;;;;;;;;;;;;;;;;;5050448;28;19999;-69
2020/12/14 07:49:41;;;;;;;;;;;;;;;;;;5050029;28;20482;-69
2020/12/14 07:52:07;;;;;;;;;;;;;;;;;;5059655;28;19909;-70
2020/12/14 07:54:33;;;;;;;;;;;;;;;;;;5064575;28;19909;-69
2020/12/14 07:57:02;;;;;;;;;;;;;;;;;;5070016;28;19952;-70
2020/12/14 07:59:28;;;;;;;;;;;;;;;;;;5059034;28;19919;-70
2020/12/14 08:01:54;;;;;;;;;;;;;;;;;;5051299;28;19964;-69
2020/12/14 08:04:20;;;;;;;;;;;;;;;;;;5051358;28;19913;-70
2020/12/14 08:06:45;;;;;;;;;;;;;;;;;;5049352;28;19999;-70
2020/12/14 08:09:11;;;;;;;;;;;;;;;;;;5049739;28;19912;-69
2020/12/14 08:11:37;;;;;;;;;;;;;;;;;;5051211;28;19912;-69
2020/12/14 08:14:03;;;;;;;;;;;;;;;;;;5051312;28;19948;-69
2020/12/14 08:16:29;;;;;;;;;;;;;;;;;;5051262;28;20000;-69
2020/12/14 08:18:55;;;;;;;;;;;;;;;;;;5051060;28;19909;-69
2020/12/14 08:21:21;;;;;;;;;;;;;;;;;;5044296;28;20295;-69
2020/12/14 08:23:47;;;;;;;;;;;;;;;;;;5056769;28;19960;-70
2020/12/14 08:26:13;;;;;;;;;;;;;;;;;;5082951;28;19908;-71
2020/12/14 08:28:41;;;;;;;;;;;;;;;;;;5085838;28;19916;-71
2020/12/14 08:31:06;;;;;;;;;;;;;;;;;;5076611;28;19999;-70
2020/12/14 08:33:33;;;;;;;;;;;;;;;;;;5070106;28;20059;-69
2020/12/14 08:35:59;;;;;;;;;;;;;;;;;;5071417;28;19966;-70
2020/12/14 08:38:25;;;;;;;;;;;;;;;;;;5069371;28;20296;-70
2020/12/14 08:40:51;;;;;;;;;;;;;;;;;;5071167;28;19912;-69
2020/12/14 08:43:17;;;;;;;;;;;;;;;;;;5071087;28;19912;-69
2020/12/14 08:45:43;;;;;;;;;;;;;;;;;;5069783;28;19909;-69
2020/12/14 08:48:09;;;;;;;;;;;;;;;;;;5070926;28;19930;-70
2020/12/14 08:50:35;;;;;;;;;;;;;;;;;;5066750;28;19909;-70
2020/12/14 08:53:01;;;;;;;;;;;;;;;;;;5059047;28;19999;-69
2020/12/14 08:55:27;;;;;;;;;;;;;;;;;;5070787;28;19909;-69
2020/12/14 08:57:53;;;;;;;;;;;;;;;;;;5074240;28;19908;-69
2020/12/14 09:00:19;;;;;;;;;;;;;;;;;;5074720;28;19916;-70
2020/12/14 09:02:48;;;;;;;;;;;;;;;;;;5074814;28;19909;-70
2020/12/14 09:05:14;;;;;;;;;;;;;;;;;;5075046;28;20380;-70
2020/12/14 09:07:40;;;;;;;;;;;;;;;;;;5074185;28;19909;-69
2020/12/14 09:10:06;;;;;;;;;;;;;;;;;;5074503;28;20002;-69
2020/12/14 09:12:32;;;;;;;;;;;;;;;;;;5074638;28;19917;-70
2020/12/14 09:14:58;;;;;;;;;;;;;;;;;;5073413;28;19958;-69
2020/12/14 09:17:24;;;;;;;;;;;;;;;;;;5073147;28;20395;-70
2020/12/14 09:19:50;;;;;;;;;;;;;;;;;;5073140;28;19915;-69
2020/12/14 09:22:16;;;;;;;;;;;;;;;;;;5061703;28;20303;-70
2020/12/14 09:24:42;;;;;;;;;;;;;;;;;;5062206;28;19909;-70
2020/12/14 09:27:08;;;;;;;;;;;;;;;;;;5054326;28;19909;-69
2020/12/14 09:29:34;;;;;;;;;;;;;;;;;;5054054;28;19951;-69
2020/12/14 09:32:00;;;;;;;;;;;;;;;;;;5054327;28;19935;-70
2020/12/14 09:34:26;;;;;;;;;;;;;;;;;;5052714;28;20281;-70
2020/12/14 09:36:52;;;;;;;;;;;;;;;;;;5053885;28;19916;-69
2020/12/14 09:39:18;;;;;;;;;;;;;;;;;;5053952;28;19924;-68
2020/12/14 09:41:44;;;;;;;;;;;;;;;;;;5054361;28;19956;-69
2020/12/14 09:44:10;;;;;;;;;;;;;;;;;;5052633;28;20429;-70
2020/12/14 09:46:36;;;;;;;;;;;;;;;;;;5052702;28;19971;-70
2020/12/14 09:49:02;;;;;;;;;;;;;;;;;;5053711;28;20023;-70
2020/12/14 09:51:28;;;;;;;;;;;;;;;;;;5057640;28;19908;-70
2020/12/14 09:53:54;;;;;;;;;;;;;;;;;;5063638;28;19948;-70
2020/12/14 09:56:20;;;;;;;;;;;;;;;;;;5072503;28;20010;-71
2020/12/14 09:58:46;;;;;;;;;;;;;;;;;;5072435;28;20376;-70
2020/12/14 10:01:11;;;;;;;;;;;;;;;;;;5072217;28;20003;-70
2020/12/14 10:03:37;;;;;;;;;;;;;;;;;;5072252;28;19952;-70
2020/12/14 10:06:03;;;;;;;;;;;;;;;;;;5072117;28;19909;-70
2020/12/14 10:08:29;;;;;;;;;;;;;;;;;;5070346;28;19956;-70
2020/12/14 10:10:56;;;;;;;;;;;;;;;;;;5073550;28;19916;-70
2020/12/14 10:13:22;;;;;;;;;;;;;;;;;;5073484;28;19954;-70
2020/12/14 10:15:48;;;;;;;;;;;;;;;;;;5073767;28;19913;-70
2020/12/14 10:18:14;;;;;;;;;;;;;;;;;;5073261;28;19919;-70
2020/12/14 10:20:39;;;;;;;;;;;;;;;;;;5069432;28;19913;-70
2020/12/14 10:23:05;;;;;;;;;;;;;;;;;;5061900;28;20319;-70
2020/12/14 10:25:31;;;;;;;;;;;;;;;;;;5073183;28;19909;-71
2020/12/14 10:27:57;;;;;;;;;;;;;;;;;;5071644;28;19912;-71
2020/12/14 10:30:23;;;;;;;;;;;;;;;;;;5071783;28;20293;-71
2020/12/14 10:32:49;;;;;;;;;;;;;;;;;;5073056;28;19908;-71
2020/12/14 10:35:16;;;;;;;;;;;;;;;;;;5071722;28;19908;-70
2020/12/14 10:37:42;;;;;;;;;;;;;;;;;;5072763;28;20007;-71
2020/12/14 10:40:08;;;;;;;;;;;;;;;;;;5072665;28;19944;-70
2020/12/14 10:42:34;;;;;;;;;;;;;;;;;;5063548;28;20422;-71
2020/12/14 10:45:00;;;;;;;;;;;;;;;;;;5057169;28;19996;-71
2020/12/14 10:47:26;;;;;;;;;;;;;;;;;;5068707;28;19913;-70
2020/12/14 10:49:52;;;;;;;;;;;;;;;;;;5052702;28;19963;-70
2020/12/14 10:52:18;;;;;;;;;;;;;;;;;;5059492;28;19952;-71
2020/12/14 10:54:44;;;;;;;;;;;;;;;;;;5053883;28;19963;-70
2020/12/14 10:57:10;;;;;;;;;;;;;;;;;;5053052;28;19916;-71
2020/12/14 10:59:36;;;;;;;;;;;;;;;;;;5051019;28;19917;-71
2020/12/14 11:02:02;;;;;;;;;;;;;;;;;;5061350;28;19920;-72
2020/12/14 11:04:28;;;;;;;;;;;;;;;;;;5072253;28;19944;-71
2020/12/14 11:06:53;;;;;;;;;;;;;;;;;;5072609;28;19938;-72
2020/12/14 11:09:19;;;;;;;;;;;;;;;;;;5071335;28;19924;-72
2020/12/14 11:11:45;;;;;;;;;;;;;;;;;;5072892;28;20448;-72
2020/12/14 11:14:11;;;;;;;;;;;;;;;;;;5071389;28;19908;-72
2020/12/14 11:16:40;;;;;;;;;;;;;;;;;;5071472;28;19912;-72
2020/12/14 11:19:06;;;;;;;;;;;;;;;;;;5064760;28;19913;-73
2020/12/14 11:21:32;;;;;;;;;;;;;;;;;;5062912;28;19919;-72
2020/12/14 11:23:58;;;;;;;;;;;;;;;;;;5062884;28;20450;-72
2020/12/14 11:26:23;;;;;;;;;;;;;;;;;;5052789;28;20368;-72
2020/12/14 11:28:49;;;;;;;;;;;;;;;;;;5051018;28;19909;-72
2020/12/14 11:31:15;;;;;;;;;;;;;;;;;;5051362;28;19909;-72
2020/12/14 11:33:41;;;;;;;;;;;;;;;;;;5050308;28;19920;-70
2020/12/14 11:36:07;;;;;;;;;;;;;;;;;;5050860;28;19909;-71
2020/12/14 11:38:33;;;;;;;;;;;;;;;;;;5052107;28;19940;-71
2020/12/14 11:40:59;;;;;;;;;;;;;;;;;;5051215;28;20376;-72
2020/12/14 11:43:25;;;;;;;;;;;;;;;;;;5051195;28;19923;-72
2020/12/14 11:45:51;;;;;;;;;;;;;;;;;;5051336;28;19909;-71
2020/12/14 11:48:17;;;;;;;;;;;;;;;;;;5069201;22;19908;-70
2020/12/14 11:50:42;;;;;;;;;;;;;;;;;;5046755;28;19956;-69
2020/12/14 11:53:09;;;;;;;;;;;;;;;;;;5047720;28;19909;-71
2020/12/14 11:55:35;;;;;;;;;;;;;;;;;;5053186;28;20277;-70
2020/12/14 11:58:01;;;;;;;;;;;;;;;;;;5051517;28;19915;-70
2020/12/14 12:00:27;;;;;;;;;;;;;;;;;;5050193;28;20003;-70
2020/12/14 12:02:52;;;;;;;;;;;;;;;;;;5051482;28;19929;-70
2020/12/14 12:05:18;;;;;;;;;;;;;;;;;;5051577;28;20458;-69
2020/12/14 12:07:44;;;;;;;;;;;;;;;;;;5049125;28;19913;-71
2020/12/14 12:10:10;;;;;;;;;;;;;;;;;;5051230;28;19960;-71
2020/12/14 12:12:36;;;;;;;;;;;;;;;;;;5050781;28;19912;-69
2020/12/14 12:15:02;;;;;;;;;;;;;;;;;;5044624;28;19909;-71
2020/12/14 12:17:28;;;;;;;;;;;;;;;;;;5046829;28;19909;-70
2020/12/14 12:19:54;;;;;;;;;;;;;;;;;;5043532;28;20228;-69
2020/12/14 12:22:20;;;;;;;;;;;;;;;;;;5039749;28;19913;-71
2020/12/14 12:24:46;;;;;;;;;;;;;;;;;;5040737;28;20462;-69
2020/12/14 12:27:11;;;;;;;;;;;;;;;;;;5049440;28;19913;-71
2020/12/14 12:29:37;;;;;;;;;;;;;;;;;;5046502;28;19956;-71
2020/12/14 12:32:03;;;;;;;;;;;;;;;;;;5052071;28;19999;-69
2020/12/14 12:34:29;;;;;;;;;;;;;;;;;;5055201;28;20348;-70
2020/12/14 12:36:55;;;;;;;;;;;;;;;;;;5052878;28;20438;-69
2020/12/14 12:39:21;;;;;;;;;;;;;;;;;;5055104;28;19909;-69
2020/12/14 12:41:47;;;;;;;;;;;;;;;;;;5055307;28;19956;-69
2020/12/14 12:44:13;;;;;;;;;;;;;;;;;;5055090;28;20399;-71
2020/12/14 12:46:39;;;;;;;;;;;;;;;;;;5053354;28;19934;-69
2020/12/14 12:49:05;;;;;;;;;;;;;;;;;;5054662;28;19979;-70
2020/12/14 12:51:31;;;;;;;;;;;;;;;;;;5054492;28;20341;-71
2020/12/14 12:53:57;;;;;;;;;;;;;;;;;;5053657;28;19974;-70
2020/12/14 12:56:23;;;;;;;;;;;;;;;;;;5053131;28;20059;-71
2020/12/14 12:58:49;;;;;;;;;;;;;;;;;;5052347;28;20402;-70
2020/12/14 13:01:15;;;;;;;;;;;;;;;;;;5053992;28;19917;-70
2020/12/14 13:03:41;;;;;;;;;;;;;;;;;;5054261;28;19909;-71
2020/12/14 13:06:07;;;;;;;;;;;;;;;;;;5054110;28;19913;-70
2020/12/14 13:08:32;;;;;;;;;;;;;;;;;;5051218;28;20360;-70
2020/12/14 13:10:58;;;;;;;;;;;;;;;;;;5053496;28;19959;-70
2020/12/14 13:13:24;;;;;;;;;;;;;;;;;;5053598;28;19992;-69
2020/12/14 13:15:50;;;;;;;;;;;;;;;;;;5053956;28;20265;-69
2020/12/14 13:18:16;;;;;;;;;;;;;;;;;;5053997;28;19909;-70
2020/12/14 13:20:42;;;;;;;;;;;;;;;;;;5054141;28;19916;-71
2020/12/14 13:23:08;;;;;;;;;;;;;;;;;;5049959;28;19913;-70
2020/12/14 13:25:34;;;;;;;;;;;;;;;;;;5053633;28;19921;-70
2020/12/14 13:28:00;;;;;;;;;;;;;;;;;;5053525;28;19916;-71
2020/12/14 13:30:25;;;;;;;;;;;;;;;;;;5053572;28;20353;-70
2020/12/14 13:32:51;;;;;;;;;;;;;;;;;;5052336;28;20007;-71
2020/12/14 13:35:18;;;;;;;;;;;;;;;;;;5053505;28;19993;-70
2020/12/14 13:37:46;;;;;;;;;;;;;;;;;;5046870;28;20392;-71
2020/12/14 13:40:12;;;;;;;;;;;;;;;;;;5051717;28;19924;-70
2020/12/14 13:42:38;;;;;;;;;;;;;;;;;;5053710;28;19909;-71
2020/12/14 13:45:03;;;;;;;;;;;;;;;;;;5053941;28;19909;-69
2020/12/14 13:47:29;;;;;;;;;;;;;;;;;;5053825;28;20387;-69
2020/12/14 13:49:55;;;;;;;;;;;;;;;;;;5053636;28;19935;-70
2020/12/14 13:52:24;;;;;;;;;;;;;;;;;;5052969;28;20400;-70
2020/12/14 13:54:50;;;;;;;;;;;;;;;;;;5052246;28;19920;-69
2020/12/14 13:57:16;;;;;;;;;;;;;;;;;;5053363;28;19909;-69
2020/12/14 13:59:42;;;;;;;;;;;;;;;;;;5053462;28;19909;-70
2020/12/14 14:02:08;;;;;;;;;;;;;;;;;;5053557;28;19952;-70
2020/12/14 14:04:34;;;;;;;;;;;;;;;;;;5053467;28;19913;-71
2020/12/14 14:07:00;;;;;;;;;;;;;;;;;;5054151;28;19940;-70
2020/12/14 14:09:28;;;;;;;;;;;;;;;;;;5059758;28;20023;-69
2020/12/14 14:11:53;;;;;;;;;;;;;;;;;;5053268;28;19909;-69
2020/12/14 14:14:19;;;;;;;;;;;;;;;;;;5053469;28;19909;-69
2020/12/14 14:16:45;;;;;;;;;;;;;;;;;;5053426;28;20329;-69
2020/12/14 14:19:11;;;;;;;;;;;;;;;;;;5053104;28;19978;-70
2020/12/14 14:21:37;;;;;;;;;;;;;;;;;;5052675;28;20017;-71
2020/12/14 14:24:03;;;;;;;;;;;;;;;;;;5053171;28;19952;-70
2020/12/14 14:26:29;;;;;;;;;;;;;;;;;;5052805;28;19913;-70
2020/12/14 14:28:55;;;;;;;;;;;;;;;;;;5051754;28;19913;-72
2020/12/14 14:31:21;;;;;;;;;;;;;;;;;;5051258;28;19909;-70
2020/12/14 14:33:47;;;;;;;;;;;;;;;;;;5052456;28;19997;-70
2020/12/14 14:36:13;;;;;;;;;;;;;;;;;;5050684;28;19913;-70
2020/12/14 14:38:39;;;;;;;;;;;;;;;;;;5051782;28;19909;-70
2020/12/14 14:41:05;;;;;;;;;;;;;;;;;;5052628;28;19952;-71
2020/12/14 14:43:30;;;;;;;;;;;;;;;;;;5051752;28;19909;-70
2020/12/14 14:45:56;;;;;;;;;;;;;;;;;;5051609;28;19952;-70
2020/12/14 14:48:22;;;;;;;;;;;;;;;;;;5052372;28;19997;-71
2020/12/14 14:50:48;;;;;;;;;;;;;;;;;;5052601;28;19912;-70
2020/12/14 14:53:14;;;;;;;;;;;;;;;;;;5051030;28;19912;-69
2020/12/14 14:55:40;;;;;;;;;;;;;;;;;;5052299;28;19963;-70
2020/12/14 14:58:06;;;;;;;;;;;;;;;;;;5051201;28;20356;-71
2020/12/14 15:00:32;;;;;;;;;;;;;;;;;;5052020;28;19963;-70
2020/12/14 15:02:58;;;;;;;;;;;;;;;;;;5052451;28;19995;-69
2020/12/14 15:05:24;;;;;;;;;;;;;;;;;;5051998;28;20398;-68
2020/12/14 15:07:51;;;;;;;;;;;;;;;;;;5050910;28;19924;-69
2020/12/14 15:10:17;;;;;;;;;;;;;;;;;;5050658;28;19995;-69
2020/12/14 15:12:43;;;;;;;;;;;;;;;;;;5051702;28;20019;-69
2020/12/14 15:15:09;;;;;;;;;;;;;;;;;;5050934;28;19909;-70
2020/12/14 15:17:35;;;;;;;;;;;;;;;;;;5051552;28;19913;-68
2020/12/14 15:20:01;;;;;;;;;;;;;;;;;;5050956;28;19960;-69
2020/12/14 15:22:27;;;;;;;;;;;;;;;;;;5048819;28;19971;-69
2020/12/14 15:24:54;;;;;;;;;;;;;;;;;;5048382;28;19955;-69
2020/12/14 15:27:20;;;;;;;;;;;;;;;;;;5051503;28;19948;-71
2020/12/14 15:29:46;;;;;;;;;;;;;;;;;;5051802;28;19954;-71
2020/12/14 15:32:12;;;;;;;;;;;;;;;;;;5051896;28;19916;-69
2020/12/14 15:34:38;;;;;;;;;;;;;;;;;;5051507;28;19943;-70
2020/12/14 15:37:04;;;;;;;;;;;;;;;;;;5049879;28;20015;-71
2020/12/14 15:39:30;;;;;;;;;;;;;;;;;;5058674;28;20011;-69
2020/12/14 15:41:56;;;;;;;;;;;;;;;;;;5051392;28;19919;-70
2020/12/14 15:44:22;;;;;;;;;;;;;;;;;;5051609;28;19908;-70
2020/12/14 15:46:48;;;;;;;;;;;;;;;;;;5051103;28;20292;-68
2020/12/14 15:49:14;;;;;;;;;;;;;;;;;;5050973;28;19938;-70
2020/12/14 15:51:39;;;;;;;;;;;;;;;;;;5051433;28;19909;-70
2020/12/14 15:54:05;;;;;;;;;;;;;;;;;;5051744;28;19999;-68
2020/12/14 15:56:31;;;;;;;;;;;;;;;;;;5051450;28;19909;-69
2020/12/14 15:58:59;;;;;;;;;;;;;;;;;;5051112;28;19909;-69
2020/12/14 16:01:25;;;;;;;;;;;;;;;;;;5051208;28;19924;-69
2020/12/14 16:03:51;;;;;;;;;;;;;;;;;;5051120;28;19909;-68
2020/12/14 16:06:17;;;;;;;;;;;;;;;;;;5052269;28;19909;-67
2020/12/14 16:08:43;;;;;;;;;;;;;;;;;;5050634;28;19908;-68
2020/12/14 16:11:09;;;;;;;;;;;;;;;;;;5051126;28;19955;-69
2020/12/14 16:13:34;;;;;;;;;;;;;;;;;;5051510;28;19923;-67
2020/12/14 16:16:00;;;;;;;;;;;;;;;;;;5051520;28;19913;-69
2020/12/14 16:18:26;;;;;;;;;;;;;;;;;;5050713;28;20339;-69
2020/12/14 16:20:52;;;;;;;;;;;;;;;;;;5050001;28;19956;-70
2020/12/14 16:23:18;;;;;;;;;;;;;;;;;;5050868;28;19995;-70
2020/12/14 16:25:44;;;;;;;;;;;;;;;;;;5050108;28;20003;-69
2020/12/14 16:28:11;;;;;;;;;;;;;;;;;;5058434;28;19931;-69
2020/12/14 16:30:37;;;;;;;;;;;;;;;;;;5051050;28;20277;-69
2020/12/14 16:33:02;;;;;;;;;;;;;;;;;;5050602;28;20058;-70
2020/12/14 16:35:32;;;;;;;;;;;;;;;;;;5047154;28;19940;-69